sensor_id;sensor_type;location;lat;lon;timestamp;pressure;altitude;pressure_sealevel;temperature;humidity
69127;BME280;56688;50.234;19.292;2023-02-22T00:00:43;98506.33;;;3.99;75.88
69127;BME280;56688;50.234;19.292;2023-02-22T00:03:14;98508.17;;;4.00;75.89
69127;BME280;56688;50.234;19.292;2023-02-22T00:05:43;98507.46;;;4.01;75.93
69127;BME280;56688;50.234;19.292;2023-02-22T00:08:13;98512.56;;;4.03;75.75
69127;BME280;56688;50.234;19.292;2023-02-22T00:10:41;98511.35;;;4.03;75.69
69127;BME280;56688;50.234;19.292;2023-02-22T00:13:10;98509.83;;;4.01;75.62
69127;BME280;56688;50.234;19.292;2023-02-22T00:15:41;98513.24;;;3.97;75.61
69127;BME280;56688;50.234;19.292;2023-02-22T00:18:10;98516.27;;;3.93;75.69
69127;BME280;56688;50.234;19.292;2023-02-22T00:20:37;98515.96;;;3.90;75.91
69127;BME280;56688;50.234;19.292;2023-02-22T00:23:07;98518.53;;;3.89;76.12
69127;BME280;56688;50.234;19.292;2023-02-22T00:25:34;98517.16;;;3.90;76.30
69127;BME280;56688;50.234;19.292;2023-02-22T00:28:02;98521.92;;;3.96;76.46
69127;BME280;56688;50.234;19.292;2023-02-22T00:30:31;98522.86;;;4.01;76.70
69127;BME280;56688;50.234;19.292;2023-02-22T00:32:59;98523.80;;;4.06;76.41
69127;BME280;56688;50.234;19.292;2023-02-22T00:35:29;98518.25;;;4.09;76.28
69127;BME280;56688;50.234;19.292;2023-02-22T00:37:58;98527.16;;;4.13;76.35
69127;BME280;56688;50.234;19.292;2023-02-22T00:40:29;98525.86;;;4.16;76.10
69127;BME280;56688;50.234;19.292;2023-02-22T00:42:59;98527.34;;;4.17;75.93
69127;BME280;56688;50.234;19.292;2023-02-22T00:45:28;98525.13;;;4.16;75.89
69127;BME280;56688;50.234;19.292;2023-02-22T00:47:57;98523.67;;;4.16;75.83
69127;BME280;56688;50.234;19.292;2023-02-22T00:50:28;98528.02;;;4.17;75.81
69127;BME280;56688;50.234;19.292;2023-02-22T00:52:56;98529.60;;;4.21;75.82
69127;BME280;56688;50.234;19.292;2023-02-22T00:55:25;98530.98;;;4.25;75.71
69127;BME280;56688;50.234;19.292;2023-02-22T00:57:53;98528.56;;;4.28;75.59
69127;BME280;56688;50.234;19.292;2023-02-22T01:00:25;98528.59;;;4.33;75.40
69127;BME280;56688;50.234;19.292;2023-02-22T01:02:53;98526.81;;;4.35;75.31
69127;BME280;56688;50.234;19.292;2023-02-22T01:05:24;98532.23;;;4.35;74.78
69127;BME280;56688;50.234;19.292;2023-02-22T01:07:53;98528.59;;;4.33;74.86
69127;BME280;56688;50.234;19.292;2023-02-22T01:10:23;98530.40;;;4.31;74.82
69127;BME280;56688;50.234;19.292;2023-02-22T01:12:51;98530.52;;;4.26;74.63
69127;BME280;56688;50.234;19.292;2023-02-22T01:15:19;98530.27;;;4.21;74.60
69127;BME280;56688;50.234;19.292;2023-02-22T01:17:50;98527.40;;;4.16;74.56
69127;BME280;56688;50.234;19.292;2023-02-22T01:20:18;98529.05;;;4.10;74.65
69127;BME280;56688;50.234;19.292;2023-02-22T01:22:47;98532.20;;;4.06;74.51
69127;BME280;56688;50.234;19.292;2023-02-22T01:25:17;98533.10;;;4.04;74.61
69127;BME280;56688;50.234;19.292;2023-02-22T01:27:45;98532.35;;;4.01;74.64
69127;BME280;56688;50.234;19.292;2023-02-22T01:30:13;98533.26;;;3.96;74.69
69127;BME280;56688;50.234;19.292;2023-02-22T01:32:41;98527.80;;;3.84;74.67
69127;BME280;56688;50.234;19.292;2023-02-22T01:35:12;98528.38;;;3.76;74.56
69127;BME280;56688;50.234;19.292;2023-02-22T01:37:39;98524.80;;;3.66;74.70
69127;BME280;56688;50.234;19.292;2023-02-22T01:40:13;98526.43;;;3.59;74.93
69127;BME280;56688;50.234;19.292;2023-02-22T01:42:43;98528.98;;;3.55;75.25
69127;BME280;56688;50.234;19.292;2023-02-22T01:50:27;98520.65;;;3.48;75.81
69127;BME280;56688;50.234;19.292;2023-02-22T01:52:54;98523.54;;;3.47;75.76
69127;BME280;56688;50.234;19.292;2023-02-22T01:55:22;98523.19;;;3.43;75.82
69127;BME280;56688;50.234;19.292;2023-02-22T01:57:49;98526.73;;;3.41;75.83
69127;BME280;56688;50.234;19.292;2023-02-22T02:00:18;98526.27;;;3.37;75.56
69127;BME280;56688;50.234;19.292;2023-02-22T02:02:51;98524.94;;;3.30;75.57
69127;BME280;56688;50.234;19.292;2023-02-22T02:05:22;98520.98;;;3.22;75.53
69127;BME280;56688;50.234;19.292;2023-02-22T02:07:51;98523.96;;;3.14;75.79
69127;BME280;56688;50.234;19.292;2023-02-22T02:10:19;98525.27;;;3.08;75.91
69127;BME280;56688;50.234;19.292;2023-02-22T02:12:49;98528.16;;;3.04;76.00
69127;BME280;56688;50.234;19.292;2023-02-22T02:15:26;98530.47;;;3.02;75.98
69127;BME280;56688;50.234;19.292;2023-02-22T02:17:58;98528.89;;;2.99;76.10
69127;BME280;56688;50.234;19.292;2023-02-22T02:20:33;98532.11;;;2.94;75.94
69127;BME280;56688;50.234;19.292;2023-02-22T02:25:46;98530.55;;;2.83;76.16
69127;BME280;56688;50.234;19.292;2023-02-22T02:31:18;98532.66;;;2.55;76.72
69127;BME280;56688;50.234;19.292;2023-02-22T02:36:46;98535.33;;;2.47;77.48
69127;BME280;56688;50.234;19.292;2023-02-22T02:39:26;98534.89;;;2.44;77.83
69127;BME280;56688;50.234;19.292;2023-02-22T02:41:55;98535.73;;;2.40;78.06
69127;BME280;56688;50.234;19.292;2023-02-22T02:44:43;98528.33;;;2.39;78.03
69127;BME280;56688;50.234;19.292;2023-02-22T02:47:19;98531.33;;;2.39;77.69
69127;BME280;56688;50.234;19.292;2023-02-22T02:49:50;98535.52;;;2.35;77.22
69127;BME280;56688;50.234;19.292;2023-02-22T02:52:18;98538.97;;;2.26;77.43
69127;BME280;56688;50.234;19.292;2023-02-22T02:54:47;98537.68;;;2.16;77.99
69127;BME280;56688;50.234;19.292;2023-02-22T02:57:15;98539.56;;;2.15;78.28
69127;BME280;56688;50.234;19.292;2023-02-22T02:59:42;98543.10;;;2.14;78.54
69127;BME280;56688;50.234;19.292;2023-02-22T03:18:08;98547.88;;;2.39;78.83
69127;BME280;56688;50.234;19.292;2023-02-22T03:20:49;98547.07;;;2.36;78.53
69127;BME280;56688;50.234;19.292;2023-02-22T03:25:57;98547.71;;;2.28;79.18
69127;BME280;56688;50.234;19.292;2023-02-22T03:28:27;98549.60;;;2.27;79.33
69127;BME280;56688;50.234;19.292;2023-02-22T03:31:00;98548.92;;;2.30;79.97
69127;BME280;56688;50.234;19.292;2023-02-22T03:33:39;98551.58;;;2.36;80.08
69127;BME280;56688;50.234;19.292;2023-02-22T03:36:21;98551.89;;;2.40;80.30
69127;BME280;56688;50.234;19.292;2023-02-22T03:38:54;98551.59;;;2.46;80.26
69127;BME280;56688;50.234;19.292;2023-02-22T03:41:25;98548.65;;;2.51;80.04
69127;BME280;56688;50.234;19.292;2023-02-22T03:43:57;98550.64;;;2.55;79.93
69127;BME280;56688;50.234;19.292;2023-02-22T03:46:27;98548.86;;;2.57;79.90
69127;BME280;56688;50.234;19.292;2023-02-22T03:51:23;98549.92;;;2.61;79.60
69127;BME280;56688;50.234;19.292;2023-02-22T03:53:53;98554.09;;;2.65;80.13
69127;BME280;56688;50.234;19.292;2023-02-22T03:56:29;98559.80;;;2.72;80.28
69127;BME280;56688;50.234;19.292;2023-02-22T03:59:06;98563.46;;;2.80;80.12
69127;BME280;56688;50.234;19.292;2023-02-22T04:01:34;98558.64;;;2.87;80.36
69127;BME280;56688;50.234;19.292;2023-02-22T04:04:02;98557.39;;;2.91;80.33
69127;BME280;56688;50.234;19.292;2023-02-22T04:06:30;98561.59;;;2.95;80.17
69127;BME280;56688;50.234;19.292;2023-02-22T04:08:58;98555.94;;;2.97;79.86
69127;BME280;56688;50.234;19.292;2023-02-22T04:11:40;98550.58;;;2.98;79.65
69127;BME280;56688;50.234;19.292;2023-02-22T04:14:07;98557.52;;;2.99;79.34
69127;BME280;56688;50.234;19.292;2023-02-22T04:16:50;98558.54;;;3.02;79.55
69127;BME280;56688;50.234;19.292;2023-02-22T04:19:17;98552.02;;;3.08;79.85
69127;BME280;56688;50.234;19.292;2023-02-22T04:21:44;98550.03;;;3.14;79.80
69127;BME280;56688;50.234;19.292;2023-02-22T04:24:18;98552.10;;;3.20;79.82
69127;BME280;56688;50.234;19.292;2023-02-22T04:26:46;98555.39;;;3.24;79.58
69127;BME280;56688;50.234;19.292;2023-02-22T04:29:13;98557.45;;;3.29;79.50
69127;BME280;56688;50.234;19.292;2023-02-22T04:31:43;98557.21;;;3.31;79.59
69127;BME280;56688;50.234;19.292;2023-02-22T04:34:11;98554.23;;;3.33;79.72
69127;BME280;56688;50.234;19.292;2023-02-22T04:36:39;98555.98;;;3.37;79.79
69127;BME280;56688;50.234;19.292;2023-02-22T04:39:08;98553.02;;;3.43;79.70
69127;BME280;56688;50.234;19.292;2023-02-22T04:41:35;98554.88;;;3.45;79.41
69127;BME280;56688;50.234;19.292;2023-02-22T04:44:02;98551.36;;;3.49;79.35
69127;BME280;56688;50.234;19.292;2023-02-22T04:46:30;98551.27;;;3.54;79.05
69127;BME280;56688;50.234;19.292;2023-02-22T04:48:57;98545.77;;;3.56;78.96
69127;BME280;56688;50.234;19.292;2023-02-22T04:51:27;98545.92;;;3.62;78.57
69127;BME280;56688;50.234;19.292;2023-02-22T04:54:04;98550.66;;;3.66;78.30
69127;BME280;56688;50.234;19.292;2023-02-22T04:56:33;98544.20;;;3.67;77.94
69127;BME280;56688;50.234;19.292;2023-02-22T04:59:00;98545.56;;;3.66;77.83
69127;BME280;56688;50.234;19.292;2023-02-22T05:01:32;98543.31;;;3.60;77.72
69127;BME280;56688;50.234;19.292;2023-02-22T05:04:04;98552.67;;;3.54;77.81
69127;BME280;56688;50.234;19.292;2023-02-22T05:06:32;98549.34;;;3.46;77.79
69127;BME280;56688;50.234;19.292;2023-02-22T05:08:58;98555.55;;;3.36;78.13
69127;BME280;56688;50.234;19.292;2023-02-22T05:11:25;98557.48;;;3.23;78.00
69127;BME280;56688;50.234;19.292;2023-02-22T05:13:52;98556.50;;;3.18;78.65
69127;BME280;56688;50.234;19.292;2023-02-22T05:16:19;98555.41;;;3.13;78.70
69127;BME280;56688;50.234;19.292;2023-02-22T05:18:46;98557.41;;;3.06;78.75
69127;BME280;56688;50.234;19.292;2023-02-22T05:21:13;98559.91;;;3.04;78.98
69127;BME280;56688;50.234;19.292;2023-02-22T05:23:40;98562.00;;;3.04;79.20
69127;BME280;56688;50.234;19.292;2023-02-22T05:26:07;98563.09;;;3.04;79.27
69127;BME280;56688;50.234;19.292;2023-02-22T05:28:37;98568.42;;;2.99;79.60
69127;BME280;56688;50.234;19.292;2023-02-22T05:31:04;98570.64;;;2.98;79.91
69127;BME280;56688;50.234;19.292;2023-02-22T05:33:33;98572.45;;;2.94;80.00
69127;BME280;56688;50.234;19.292;2023-02-22T05:35:59;98577.88;;;2.90;80.16
69127;BME280;56688;50.234;19.292;2023-02-22T05:38:27;98578.81;;;2.93;80.53
69127;BME280;56688;50.234;19.292;2023-02-22T05:40:54;98578.42;;;3.00;80.61
69127;BME280;56688;50.234;19.292;2023-02-22T05:43:22;98582.12;;;3.05;80.40
69127;BME280;56688;50.234;19.292;2023-02-22T05:45:49;98579.89;;;3.03;80.09
69127;BME280;56688;50.234;19.292;2023-02-22T05:48:16;98583.56;;;2.99;80.07
69127;BME280;56688;50.234;19.292;2023-02-22T05:50:43;98586.52;;;2.92;80.21
69127;BME280;56688;50.234;19.292;2023-02-22T05:53:09;98585.30;;;2.90;80.30
69127;BME280;56688;50.234;19.292;2023-02-22T05:55:36;98583.25;;;2.87;80.52
69127;BME280;56688;50.234;19.292;2023-02-22T05:58:03;98587.95;;;2.92;80.93
69127;BME280;56688;50.234;19.292;2023-02-22T06:00:31;98590.73;;;2.94;80.87
69127;BME280;56688;50.234;19.292;2023-02-22T06:03:02;98591.92;;;2.98;81.36
69127;BME280;56688;50.234;19.292;2023-02-22T06:05:29;98595.46;;;3.02;81.06
69127;BME280;56688;50.234;19.292;2023-02-22T06:07:57;98594.20;;;2.96;80.96
69127;BME280;56688;50.234;19.292;2023-02-22T06:10:25;98597.88;;;2.95;81.03
69127;BME280;56688;50.234;19.292;2023-02-22T06:12:53;98599.65;;;2.98;81.40
69127;BME280;56688;50.234;19.292;2023-02-22T06:15:22;98602.45;;;3.06;81.63
69127;BME280;56688;50.234;19.292;2023-02-22T06:17:50;98604.36;;;3.15;81.26
69127;BME280;56688;50.234;19.292;2023-02-22T06:20:19;98608.34;;;3.17;81.08
69127;BME280;56688;50.234;19.292;2023-02-22T06:22:47;98608.52;;;3.17;80.97
69127;BME280;56688;50.234;19.292;2023-02-22T06:25:18;98613.61;;;3.25;81.35
69127;BME280;56688;50.234;19.292;2023-02-22T06:27:45;98617.31;;;3.31;81.08
69127;BME280;56688;50.234;19.292;2023-02-22T06:30:13;98621.61;;;3.26;80.62
69127;BME280;56688;50.234;19.292;2023-02-22T06:32:40;98622.92;;;3.25;81.09
69127;BME280;56688;50.234;19.292;2023-02-22T06:35:07;98627.68;;;3.31;80.96
69127;BME280;56688;50.234;19.292;2023-02-22T06:37:35;98626.95;;;3.33;81.01
69127;BME280;56688;50.234;19.292;2023-02-22T06:40:02;98630.09;;;3.43;81.33
69127;BME280;56688;50.234;19.292;2023-02-22T06:42:31;98634.22;;;3.50;80.93
69127;BME280;56688;50.234;19.292;2023-02-22T06:44:59;98638.33;;;3.59;81.16
69127;BME280;56688;50.234;19.292;2023-02-22T06:47:26;98641.71;;;3.68;80.91
69127;BME280;56688;50.234;19.292;2023-02-22T06:49:54;98640.22;;;3.69;80.82
69127;BME280;56688;50.234;19.292;2023-02-22T06:52:21;98642.18;;;3.76;80.84
69127;BME280;56688;50.234;19.292;2023-02-22T06:54:49;98639.90;;;3.76;80.36
69127;BME280;56688;50.234;19.292;2023-02-22T06:57:17;98645.77;;;3.83;80.43
69127;BME280;56688;50.234;19.292;2023-02-22T06:59:44;98644.77;;;3.92;80.22
69127;BME280;56688;50.234;19.292;2023-02-22T07:02:11;98649.73;;;3.99;80.03
69127;BME280;56688;50.234;19.292;2023-02-22T07:04:39;98652.23;;;4.08;79.95
69127;BME280;56688;50.234;19.292;2023-02-22T07:07:09;98653.61;;;4.14;79.55
69127;BME280;56688;50.234;19.292;2023-02-22T07:09:36;98652.48;;;4.13;79.48
69127;BME280;56688;50.234;19.292;2023-02-22T07:12:04;98653.99;;;4.12;79.40
69127;BME280;56688;50.234;19.292;2023-02-22T07:14:31;98655.17;;;4.20;79.50
69127;BME280;56688;50.234;19.292;2023-02-22T07:16:57;98657.86;;;4.33;80.10
69127;BME280;56688;50.234;19.292;2023-02-22T07:19:24;98657.70;;;4.48;79.67
69127;BME280;56688;50.234;19.292;2023-02-22T07:21:51;98657.79;;;4.59;79.10
69127;BME280;56688;50.234;19.292;2023-02-22T07:24:26;98656.48;;;4.67;78.51
69127;BME280;56688;50.234;19.292;2023-02-22T07:26:54;98657.64;;;4.73;78.52
69127;BME280;56688;50.234;19.292;2023-02-22T07:29:21;98656.98;;;4.73;78.81
69127;BME280;56688;50.234;19.292;2023-02-22T07:31:48;98659.77;;;4.81;78.86
69127;BME280;56688;50.234;19.292;2023-02-22T07:34:15;98658.44;;;4.93;79.11
69127;BME280;56688;50.234;19.292;2023-02-22T07:36:42;98661.48;;;5.05;78.69
69127;BME280;56688;50.234;19.292;2023-02-22T07:39:09;98659.48;;;5.17;78.26
69127;BME280;56688;50.234;19.292;2023-02-22T07:41:36;98664.39;;;5.31;78.27
69127;BME280;56688;50.234;19.292;2023-02-22T07:44:10;98663.00;;;5.44;77.84
69127;BME280;56688;50.234;19.292;2023-02-22T07:46:38;98666.63;;;5.50;77.68
69127;BME280;56688;50.234;19.292;2023-02-22T07:49:05;98667.38;;;5.56;77.39
69127;BME280;56688;50.234;19.292;2023-02-22T07:51:32;98664.88;;;5.58;76.97
69127;BME280;56688;50.234;19.292;2023-02-22T07:53:59;98664.23;;;5.54;76.82
69127;BME280;56688;50.234;19.292;2023-02-22T07:56:25;98660.40;;;5.57;77.21
69127;BME280;56688;50.234;19.292;2023-02-22T07:58:52;98659.00;;;5.70;76.48
69127;BME280;56688;50.234;19.292;2023-02-22T08:01:19;98659.17;;;5.82;75.53
69127;BME280;56688;50.234;19.292;2023-02-22T08:03:46;98657.73;;;5.89;74.24
69127;BME280;56688;50.234;19.292;2023-02-22T08:06:13;98661.15;;;5.94;73.39
69127;BME280;56688;50.234;19.292;2023-02-22T08:08:40;98660.36;;;5.96;73.20
69127;BME280;56688;50.234;19.292;2023-02-22T08:11:07;98662.60;;;6.01;71.25
69127;BME280;56688;50.234;19.292;2023-02-22T08:13:33;98660.09;;;6.03;70.00
69127;BME280;56688;50.234;19.292;2023-02-22T08:16:03;98658.95;;;6.10;69.64
69127;BME280;56688;50.234;19.292;2023-02-22T08:18:30;98658.42;;;6.24;69.45
69127;BME280;56688;50.234;19.292;2023-02-22T08:20:56;98655.59;;;6.40;68.48
69127;BME280;56688;50.234;19.292;2023-02-22T08:23:24;98652.65;;;6.51;67.61
69127;BME280;56688;50.234;19.292;2023-02-22T08:25:53;98654.07;;;6.59;66.09
69127;BME280;56688;50.234;19.292;2023-02-22T08:28:21;98654.80;;;6.59;66.20
69127;BME280;56688;50.234;19.292;2023-02-22T08:30:49;98656.78;;;6.66;65.33
69127;BME280;56688;50.234;19.292;2023-02-22T08:33:17;98655.67;;;6.68;64.99
69127;BME280;56688;50.234;19.292;2023-02-22T08:35:47;98657.27;;;6.72;63.88
69127;BME280;56688;50.234;19.292;2023-02-22T08:38:18;98661.08;;;6.79;63.97
69127;BME280;56688;50.234;19.292;2023-02-22T08:40:47;98662.41;;;6.95;63.49
69127;BME280;56688;50.234;19.292;2023-02-22T08:43:14;98667.47;;;7.04;62.68
69127;BME280;56688;50.234;19.292;2023-02-22T08:45:41;98665.96;;;7.08;63.03
69127;BME280;56688;50.234;19.292;2023-02-22T08:48:09;98660.67;;;7.16;62.91
69127;BME280;56688;50.234;19.292;2023-02-22T08:50:36;98663.63;;;7.29;61.71
69127;BME280;56688;50.234;19.292;2023-02-22T08:53:04;98664.77;;;7.41;60.93
69127;BME280;56688;50.234;19.292;2023-02-22T08:55:33;98664.69;;;7.58;59.95
69127;BME280;56688;50.234;19.292;2023-02-22T08:58:02;98668.41;;;7.71;59.40
69127;BME280;56688;50.234;19.292;2023-02-22T09:00:31;98668.69;;;7.75;59.09
69127;BME280;56688;50.234;19.292;2023-02-22T09:03:00;98667.49;;;7.73;58.93
69127;BME280;56688;50.234;19.292;2023-02-22T09:05:28;98666.60;;;7.68;59.46
69127;BME280;56688;50.234;19.292;2023-02-22T09:07:57;98668.79;;;7.76;58.87
69127;BME280;56688;50.234;19.292;2023-02-22T09:10:27;98664.15;;;7.92;58.65
69127;BME280;56688;50.234;19.292;2023-02-22T09:12:55;98669.30;;;8.08;58.02
69127;BME280;56688;50.234;19.292;2023-02-22T09:15:23;98672.32;;;8.15;56.88
69127;BME280;56688;50.234;19.292;2023-02-22T09:17:51;98673.41;;;8.25;56.21
69127;BME280;56688;50.234;19.292;2023-02-22T09:20:19;98668.61;;;8.37;55.81
69127;BME280;56688;50.234;19.292;2023-02-22T09:22:48;98668.58;;;8.52;55.66
69127;BME280;56688;50.234;19.292;2023-02-22T09:25:16;98668.33;;;8.67;55.28
69127;BME280;56688;50.234;19.292;2023-02-22T09:27:47;98667.77;;;8.83;55.05
69127;BME280;56688;50.234;19.292;2023-02-22T09:30:20;98667.73;;;8.91;54.93
69127;BME280;56688;50.234;19.292;2023-02-22T09:32:52;98669.97;;;8.82;55.13
69127;BME280;56688;50.234;19.292;2023-02-22T09:35:20;98667.94;;;8.80;54.77
69127;BME280;56688;50.234;19.292;2023-02-22T09:37:56;98669.98;;;8.87;55.72
69127;BME280;56688;50.234;19.292;2023-02-22T09:40:25;98667.39;;;8.94;54.94
69127;BME280;56688;50.234;19.292;2023-02-22T09:45:33;98665.02;;;9.16;52.64
69127;BME280;56688;50.234;19.292;2023-02-22T09:48:05;98662.17;;;9.10;51.66
69127;BME280;56688;50.234;19.292;2023-02-22T09:50:48;98664.98;;;9.09;52.80
69127;BME280;56688;50.234;19.292;2023-02-22T09:56:03;98663.09;;;9.08;52.68
69127;BME280;56688;50.234;19.292;2023-02-22T09:58:35;98660.18;;;9.03;52.85
69127;BME280;56688;50.234;19.292;2023-02-22T10:03:54;98660.91;;;8.98;52.72
69127;BME280;56688;50.234;19.292;2023-02-22T10:06:24;98659.13;;;8.93;53.31
69127;BME280;56688;50.234;19.292;2023-02-22T10:08:54;98660.17;;;8.92;53.51
69127;BME280;56688;50.234;19.292;2023-02-22T10:17:10;98656.95;;;9.02;53.86
69127;BME280;56688;50.234;19.292;2023-02-22T10:30:00;98653.14;;;9.05;52.80
69127;BME280;56688;50.234;19.292;2023-02-22T10:32:54;98655.52;;;9.08;52.53
69127;BME280;56688;50.234;19.292;2023-02-22T10:35:27;98653.98;;;9.06;53.00
69127;BME280;56688;50.234;19.292;2023-02-22T10:38:00;98653.12;;;9.02;52.84
69127;BME280;56688;50.234;19.292;2023-02-22T10:40:28;98653.96;;;9.01;52.18
69127;BME280;56688;50.234;19.292;2023-02-22T10:43:02;98648.70;;;9.07;52.14
69127;BME280;56688;50.234;19.292;2023-02-22T10:45:30;98648.64;;;9.24;52.16
69127;BME280;56688;50.234;19.292;2023-02-22T10:48:05;98647.50;;;9.39;51.58
69127;BME280;56688;50.234;19.292;2023-02-22T10:50:36;98644.45;;;9.40;50.22
69127;BME280;56688;50.234;19.292;2023-02-22T10:53:03;98643.58;;;9.43;49.97
69127;BME280;56688;50.234;19.292;2023-02-22T10:55:30;98640.13;;;9.46;51.58
69127;BME280;56688;50.234;19.292;2023-02-22T10:58:02;98642.59;;;9.46;51.28
69127;BME280;56688;50.234;19.292;2023-02-22T11:00:36;98644.14;;;9.48;51.15
69127;BME280;56688;50.234;19.292;2023-02-22T11:03:20;98649.04;;;9.38;50.63
69127;BME280;56688;50.234;19.292;2023-02-22T11:05:49;98645.98;;;9.32;51.14
69127;BME280;56688;50.234;19.292;2023-02-22T11:10:49;98645.38;;;9.43;50.40
69127;BME280;56688;50.234;19.292;2023-02-22T11:13:24;98644.45;;;9.48;50.11
69127;BME280;56688;50.234;19.292;2023-02-22T11:15:53;98641.73;;;9.58;49.89
69127;BME280;56688;50.234;19.292;2023-02-22T11:18:24;98638.77;;;9.58;49.77
69127;BME280;56688;50.234;19.292;2023-02-22T11:21:02;98637.60;;;9.49;49.94
69127;BME280;56688;50.234;19.292;2023-02-22T11:23:30;98634.81;;;9.42;49.89
69127;BME280;56688;50.234;19.292;2023-02-22T11:26:02;98634.55;;;9.39;50.91
69127;BME280;56688;50.234;19.292;2023-02-22T11:28:31;98634.31;;;9.42;51.02
69127;BME280;56688;50.234;19.292;2023-02-22T11:31:15;98632.60;;;9.49;50.57
69127;BME280;56688;50.234;19.292;2023-02-22T11:33:58;98633.83;;;9.49;50.28
69127;BME280;56688;50.234;19.292;2023-02-22T11:36:36;98629.46;;;9.49;49.67
69127;BME280;56688;50.234;19.292;2023-02-22T11:41:49;98632.40;;;9.43;50.17
69127;BME280;56688;50.234;19.292;2023-02-22T11:46:47;98630.45;;;9.43;50.30
69127;BME280;56688;50.234;19.292;2023-02-22T11:49:14;98629.48;;;9.38;49.92
69127;BME280;56688;50.234;19.292;2023-02-22T11:56:52;98627.88;;;9.16;50.18
69127;BME280;56688;50.234;19.292;2023-02-22T11:59:48;98630.03;;;9.21;50.63
69127;BME280;56688;50.234;19.292;2023-02-22T12:07:56;98625.73;;;9.49;49.89
69127;BME280;56688;50.234;19.292;2023-02-22T12:10:50;98622.26;;;9.50;49.72
69127;BME280;56688;50.234;19.292;2023-02-22T12:13:24;98618.84;;;9.56;49.18
69127;BME280;56688;50.234;19.292;2023-02-22T12:18:34;98616.52;;;9.67;48.30
69127;BME280;56688;50.234;19.292;2023-02-22T12:21:10;98612.64;;;9.80;47.99
69127;BME280;56688;50.234;19.292;2023-02-22T12:26:24;98617.23;;;9.89;47.52
69127;BME280;56688;50.234;19.292;2023-02-22T12:28:57;98617.14;;;9.87;47.44
69127;BME280;56688;50.234;19.292;2023-02-22T12:31:32;98611.85;;;9.84;47.82
69127;BME280;56688;50.234;19.292;2023-02-22T12:34:12;98614.46;;;9.86;49.24
69127;BME280;56688;50.234;19.292;2023-02-22T12:36:46;98617.08;;;9.95;48.32
69127;BME280;56688;50.234;19.292;2023-02-22T12:45:06;98609.49;;;9.89;48.64
69127;BME280;56688;50.234;19.292;2023-02-22T12:47:44;98611.21;;;9.83;49.51
69127;BME280;56688;50.234;19.292;2023-02-22T12:50:19;98607.76;;;9.85;49.75
69127;BME280;56688;50.234;19.292;2023-02-22T12:52:54;98604.23;;;9.94;48.75
69127;BME280;56688;50.234;19.292;2023-02-22T12:55:28;98605.05;;;9.99;48.92
69127;BME280;56688;50.234;19.292;2023-02-22T13:00:47;98609.54;;;9.91;48.89
69127;BME280;56688;50.234;19.292;2023-02-22T13:17:21;98603.84;;;9.47;49.00
69127;BME280;56688;50.234;19.292;2023-02-22T13:20:08;98603.16;;;9.39;49.32
69127;BME280;56688;50.234;19.292;2023-02-22T13:22:38;98604.06;;;9.36;49.44
69127;BME280;56688;50.234;19.292;2023-02-22T13:25:14;98602.14;;;9.39;49.33
69127;BME280;56688;50.234;19.292;2023-02-22T13:27:49;98605.83;;;9.32;49.50
69127;BME280;56688;50.234;19.292;2023-02-22T13:30:21;98603.48;;;9.23;49.94
69127;BME280;56688;50.234;19.292;2023-02-22T13:38:50;98603.88;;;9.24;50.66
69127;BME280;56688;50.234;19.292;2023-02-22T13:51:42;98604.25;;;9.13;52.17
69127;BME280;56688;50.234;19.292;2023-02-22T13:54:17;98607.73;;;9.11;52.12
69127;BME280;56688;50.234;19.292;2023-02-22T13:56:48;98602.37;;;9.16;52.12
69127;BME280;56688;50.234;19.292;2023-02-22T13:59:33;98602.70;;;9.19;51.75
69127;BME280;56688;50.234;19.292;2023-02-22T14:02:03;98600.08;;;9.18;51.04
69127;BME280;56688;50.234;19.292;2023-02-22T14:04:37;98598.73;;;9.16;50.77
69127;BME280;56688;50.234;19.292;2023-02-22T14:09:50;98605.05;;;8.97;51.58
69127;BME280;56688;50.234;19.292;2023-02-22T14:20:24;98604.90;;;8.89;52.19
69127;BME280;56688;50.234;19.292;2023-02-22T14:26:18;98601.45;;;8.93;52.20
69127;BME280;56688;50.234;19.292;2023-02-22T14:34:11;98600.98;;;8.99;51.72
69127;BME280;56688;50.234;19.292;2023-02-22T14:36:47;98602.98;;;9.00;50.72
69127;BME280;56688;50.234;19.292;2023-02-22T14:41:53;98602.59;;;8.97;51.09
69127;BME280;56688;50.234;19.292;2023-02-22T14:44:26;98600.96;;;8.83;51.21
69127;BME280;56688;50.234;19.292;2023-02-22T14:46:56;98598.18;;;8.75;51.04
69127;BME280;56688;50.234;19.292;2023-02-22T14:49:29;98599.87;;;8.69;50.70
69127;BME280;56688;50.234;19.292;2023-02-22T14:52:00;98596.92;;;8.64;51.36
69127;BME280;56688;50.234;19.292;2023-02-22T14:54:34;98595.55;;;8.60;51.39
69127;BME280;56688;50.234;19.292;2023-02-22T14:57:11;98595.88;;;8.59;51.50
69127;BME280;56688;50.234;19.292;2023-02-22T14:59:51;98594.61;;;8.52;51.60
69127;BME280;56688;50.234;19.292;2023-02-22T15:02:22;98593.98;;;8.49;51.79
69127;BME280;56688;50.234;19.292;2023-02-22T15:04:53;98597.61;;;8.46;51.81
69127;BME280;56688;50.234;19.292;2023-02-22T15:07:26;98597.61;;;8.42;51.70
69127;BME280;56688;50.234;19.292;2023-02-22T15:10:19;98591.12;;;8.36;51.72
69127;BME280;56688;50.234;19.292;2023-02-22T15:12:53;98595.16;;;8.34;51.85
69127;BME280;56688;50.234;19.292;2023-02-22T15:15:22;98591.15;;;8.27;52.47
69127;BME280;56688;50.234;19.292;2023-02-22T15:17:54;98592.23;;;8.20;52.42
69127;BME280;56688;50.234;19.292;2023-02-22T15:20:23;98595.84;;;8.00;53.45
69127;BME280;56688;50.234;19.292;2023-02-22T15:22:57;98595.64;;;7.83;53.79
69127;BME280;56688;50.234;19.292;2023-02-22T15:25:27;98594.76;;;7.77;54.54
69127;BME280;56688;50.234;19.292;2023-02-22T15:28:02;98594.26;;;7.67;54.99
69127;BME280;56688;50.234;19.292;2023-02-22T15:30:31;98599.12;;;7.51;54.88
69127;BME280;56688;50.234;19.292;2023-02-22T15:33:12;98602.07;;;7.38;55.38
69127;BME280;56688;50.234;19.292;2023-02-22T15:35:40;98607.34;;;7.33;56.25
69127;BME280;56688;50.234;19.292;2023-02-22T15:40:40;98605.52;;;7.20;55.66
69127;BME280;56688;50.234;19.292;2023-02-22T15:43:19;98609.17;;;7.11;55.50